createdAt,value
2018-04-22T00:01:52.570Z,59.30
2018-04-22T00:04:21.786Z,59.20
2018-04-22T00:06:50.070Z,59.00
2018-04-22T00:09:18.364Z,58.90
2018-04-22T00:11:46.636Z,58.90
2018-04-22T00:17:30.520Z,59.00
2018-04-22T00:19:59.769Z,58.80
2018-04-22T00:22:28.074Z,59.00
2018-04-22T00:24:58.337Z,59.20
2018-04-22T00:36:27.442Z,58.90
2018-04-22T00:38:56.572Z,59.00
2018-04-22T00:41:24.856Z,59.00
2018-04-22T00:43:53.120Z,59.10
2018-04-22T00:46:22.193Z,59.10
2018-04-22T00:48:51.250Z,59.10
2018-04-22T00:51:19.564Z,59.10
2018-04-22T00:54:00.967Z,59.00
2018-04-22T00:56:30.053Z,59.00
2018-04-22T00:58:58.361Z,59.00
2018-04-22T01:01:26.633Z,59.00
2018-04-22T01:03:54.946Z,59.00
2018-04-22T01:06:23.255Z,59.10
2018-04-22T01:08:51.555Z,59.10
2018-04-22T01:11:19.833Z,59.20
2018-04-22T01:13:48.929Z,59.10
2018-04-22T01:16:17.969Z,59.20
2018-04-22T01:18:47.460Z,59.20
2018-04-22T01:21:15.789Z,59.20
2018-04-22T01:23:44.338Z,59.20
2018-04-22T01:26:12.650Z,59.20
2018-04-22T01:28:40.934Z,59.40
2018-04-22T01:31:09.245Z,59.20
2018-04-22T01:33:37.546Z,59.30
2018-04-22T01:36:06.139Z,59.30
2018-04-22T01:38:34.459Z,59.40
2018-04-22T01:41:03.137Z,59.60
2018-04-22T01:43:31.437Z,59.60
2018-04-22T01:45:59.757Z,59.70
2018-04-22T01:48:28.063Z,59.80
2018-04-22T01:50:56.334Z,59.90
2018-04-22T01:53:24.697Z,59.80
2018-04-22T01:55:53.791Z,59.90
2018-04-22T01:58:22.073Z,59.70
2018-04-22T02:00:50.361Z,59.90
2018-04-22T02:03:18.655Z,59.80
2018-04-22T02:05:46.935Z,59.80
2018-04-22T02:08:15.221Z,59.90
2018-04-22T02:10:43.529Z,59.90
2018-04-22T02:13:11.800Z,60.00
2018-04-22T02:15:40.113Z,60.00
2018-04-22T02:18:08.391Z,60.10
2018-04-22T02:20:36.683Z,60.30
2018-04-22T02:23:04.974Z,60.30
2018-04-22T02:25:33.258Z,60.40
2018-04-22T02:28:02.599Z,60.50
2018-04-22T02:30:31.689Z,60.70
2018-04-22T02:33:00.740Z,60.60
2018-04-22T02:35:29.005Z,60.50
2018-04-22T02:37:57.311Z,60.60
2018-04-22T02:40:25.614Z,60.60
2018-04-22T02:42:53.884Z,60.60
2018-04-22T02:45:22.952Z,60.80
2018-04-22T02:47:51.216Z,60.80
2018-04-22T02:50:19.696Z,60.90
2018-04-22T02:52:47.958Z,61.10
2018-04-22T02:55:16.254Z,61.20
2018-04-22T02:57:44.539Z,61.40
2018-04-22T03:00:12.848Z,61.40
2018-04-22T03:02:41.911Z,61.70
2018-04-22T03:05:10.183Z,61.70
2018-04-22T03:07:38.481Z,61.80
2018-04-22T03:10:06.748Z,61.90
2018-04-22T03:12:35.103Z,61.90
2018-04-22T03:15:03.390Z,62.20
2018-04-22T03:17:31.706Z,62.20
2018-04-22T03:20:00.757Z,62.40
2018-04-22T03:22:29.030Z,62.40
2018-04-22T03:24:57.317Z,62.60
2018-04-22T03:27:25.587Z,62.60
2018-04-22T03:29:54.198Z,62.70
2018-04-22T03:32:22.468Z,62.90
2018-04-22T03:34:51.539Z,63.20
2018-04-22T03:37:19.825Z,63.20
2018-04-22T03:39:48.158Z,63.30
2018-04-22T03:42:17.237Z,63.40
2018-04-22T03:44:46.935Z,63.50
2018-04-22T03:47:15.995Z,63.60
2018-04-22T03:49:44.271Z,63.60
2018-04-22T03:52:12.563Z,63.80
2018-04-22T03:54:40.848Z,63.80
2018-04-22T03:57:09.902Z,64.20
2018-04-22T03:59:38.197Z,64.20
2018-04-22T04:02:06.521Z,64.20
2018-04-22T04:04:34.802Z,64.50
2018-04-22T04:07:03.111Z,64.40
2018-04-22T04:09:32.136Z,64.70
2018-04-22T04:12:00.455Z,64.80
2018-04-22T04:14:29.539Z,64.90
2018-04-22T04:16:57.836Z,64.90
2018-04-22T04:19:37.953Z,65.00
2018-04-22T04:22:18.314Z,65.10
2018-04-22T04:27:47.874Z,65.20
2018-04-22T04:30:16.150Z,65.20
2018-04-22T04:32:44.485Z,65.40
2018-04-22T04:35:12.787Z,65.70
2018-04-22T04:37:41.067Z,65.60
2018-04-22T04:40:09.380Z,65.70
2018-04-22T04:42:37.631Z,65.80
2018-04-22T04:45:05.971Z,65.80
2018-04-22T04:47:34.310Z,66.10
2018-04-22T04:50:02.599Z,66.10
2018-04-22T04:52:31.793Z,66.20
2018-04-22T04:55:00.167Z,66.30
2018-04-22T04:57:28.518Z,66.30
2018-04-22T04:59:56.839Z,66.40
2018-04-22T05:02:26.038Z,66.90
2018-04-22T05:04:55.097Z,66.70
2018-04-22T05:07:23.602Z,66.70
2018-04-22T05:09:51.884Z,66.80
2018-04-22T05:12:20.219Z,66.90
2018-04-22T05:14:48.474Z,67.70
2018-04-22T05:17:16.771Z,66.90
2018-04-22T05:19:45.162Z,67.00
2018-04-22T05:22:13.547Z,67.10
2018-04-22T05:24:41.842Z,67.20
2018-04-22T05:27:10.138Z,67.10
2018-04-22T05:29:38.461Z,67.10
2018-04-22T05:32:06.809Z,67.10
2018-04-22T05:34:35.158Z,67.20
2018-04-22T05:37:03.461Z,67.10
2018-04-22T05:39:31.765Z,67.30
2018-04-22T05:42:00.109Z,67.10
2018-04-22T05:44:28.503Z,66.90
2018-04-22T05:46:57.648Z,66.80
2018-04-22T05:49:25.958Z,66.80
2018-04-22T05:51:54.250Z,66.80
2018-04-22T05:54:23.282Z,67.30
2018-04-22T05:56:52.526Z,66.60
2018-04-22T05:59:20.803Z,66.70
2018-04-22T06:01:49.117Z,66.70
2018-04-22T06:04:18.159Z,66.20
2018-04-22T06:06:46.430Z,66.20
2018-04-22T06:09:14.730Z,66.20
2018-04-22T06:11:43.062Z,66.30
2018-04-22T06:14:11.386Z,66.00
2018-04-22T06:16:39.650Z,65.80
2018-04-22T06:19:07.949Z,65.70
2018-04-22T06:21:36.290Z,65.60
2018-04-22T06:24:08.742Z,65.30
2018-04-22T06:29:37.568Z,64.40
2018-04-22T06:49:54.554Z,63.60
2018-04-22T06:52:22.868Z,63.40
2018-04-22T06:54:51.920Z,63.10
2018-04-22T06:57:20.199Z,63.20
2018-04-22T06:59:48.501Z,63.80
2018-04-22T07:02:16.809Z,62.70
2018-04-22T07:04:45.139Z,62.30
2018-04-22T07:07:13.436Z,61.90
2018-04-22T07:24:47.562Z,60.20
2018-04-22T07:39:27.236Z,59.40
2018-04-22T07:41:55.521Z,59.10
2018-04-22T07:44:23.841Z,58.90
2018-04-22T07:46:53.537Z,58.00
2018-04-22T07:49:21.906Z,58.00
2018-04-22T07:51:50.202Z,57.70
2018-04-22T07:54:18.517Z,57.60
2018-04-22T07:56:47.607Z,56.80
2018-04-22T07:59:16.687Z,56.80
2018-04-22T08:01:45.801Z,56.80
2018-04-22T08:04:14.912Z,56.30
2018-04-22T08:06:43.975Z,55.90
2018-04-22T08:18:15.327Z,54.30
2018-04-22T08:20:43.613Z,54.20
2018-04-22T08:23:11.956Z,54.10
2018-04-22T08:25:40.238Z,53.70
2018-04-22T08:28:09.294Z,53.20
2018-04-22T08:30:37.605Z,53.20
2018-04-22T08:33:05.878Z,53.00
2018-04-22T08:35:34.218Z,52.30
2018-04-22T08:38:02.496Z,51.50
2018-04-22T08:40:30.799Z,51.00
2018-04-22T08:42:59.066Z,50.70
2018-04-22T08:45:27.341Z,50.80
2018-04-22T08:47:55.665Z,50.50
2018-04-22T08:50:24.703Z,50.00
2018-04-22T08:52:55.260Z,49.40
2018-04-22T08:55:23.519Z,49.40
2018-04-22T08:57:51.828Z,49.30
2018-04-22T09:00:20.438Z,48.80
2018-04-22T09:02:48.761Z,48.60
2018-04-22T09:05:17.015Z,48.50
2018-04-22T09:07:45.349Z,47.30
2018-04-22T09:10:13.634Z,46.30
2018-04-22T09:12:41.951Z,45.50
2018-04-22T09:15:10.227Z,45.40
2018-04-22T09:17:38.501Z,44.90
2018-04-22T09:20:06.841Z,44.80
2018-04-22T09:22:35.097Z,44.90
2018-04-22T09:25:03.407Z,44.30
2018-04-22T09:27:31.677Z,43.70
2018-04-22T09:29:59.985Z,43.70
2018-04-22T09:32:29.089Z,43.70
2018-04-22T09:34:58.133Z,43.80
2018-04-22T09:37:26.478Z,43.80
2018-04-22T09:39:54.758Z,43.40
2018-04-22T09:42:23.053Z,43.70
2018-04-22T09:44:51.331Z,43.80
2018-04-22T09:47:19.631Z,43.20
2018-04-22T09:49:48.016Z,43.60
2018-04-22T09:52:16.333Z,43.60
2018-04-22T09:54:44.617Z,43.40
2018-04-22T09:57:12.881Z,43.40
2018-04-22T09:59:41.934Z,43.10
2018-04-22T10:02:16.034Z,43.00
2018-04-22T10:04:47.291Z,43.20
2018-04-22T10:07:15.604Z,43.00
2018-04-22T10:09:44.677Z,43.00
2018-04-22T10:12:12.963Z,43.00
2018-04-22T10:14:41.299Z,42.90
2018-04-22T10:17:09.590Z,42.50
2018-04-22T10:19:37.876Z,42.60
2018-04-22T10:22:06.476Z,42.50
2018-04-22T10:24:34.737Z,42.70
2018-04-22T10:27:03.054Z,42.80
2018-04-22T10:29:32.080Z,42.90
2018-04-22T10:32:00.362Z,42.80
2018-04-22T10:34:28.670Z,42.70
2018-04-22T10:36:56.972Z,42.40
2018-04-22T10:39:25.275Z,42.40
2018-04-22T10:41:53.758Z,42.40
2018-04-22T10:44:22.091Z,42.30
2018-04-22T10:46:50.399Z,42.20
2018-04-22T10:49:18.705Z,42.20
2018-04-22T10:51:49.778Z,42.20
2018-04-22T10:54:18.098Z,42.40
2018-04-22T10:56:47.363Z,42.20
2018-04-22T10:59:15.838Z,42.10
2018-04-22T11:01:44.953Z,42.10
2018-04-22T11:04:13.238Z,42.10
2018-04-22T11:06:41.583Z,41.90
2018-04-22T11:09:09.919Z,41.70
2018-04-22T11:11:39.063Z,41.60
2018-04-22T11:14:07.439Z,41.60
2018-04-22T11:16:36.381Z,41.50
2018-04-22T11:19:04.851Z,41.00
2018-04-22T11:21:33.234Z,41.50
2018-04-22T11:24:01.515Z,40.90
2018-04-22T11:26:29.790Z,40.80
2018-04-22T11:28:58.189Z,40.70
2018-04-22T11:31:26.827Z,40.60
2018-04-22T11:33:55.684Z,40.30
2018-04-22T11:36:24.778Z,39.00
2018-04-22T11:38:53.287Z,38.90
2018-04-22T11:41:21.737Z,38.10
2018-04-22T11:43:51.673Z,36.50
2018-04-22T11:46:20.715Z,35.30
2018-04-22T11:48:49.012Z,35.30
2018-04-22T11:51:17.302Z,34.30
2018-04-22T11:53:46.398Z,33.30
2018-04-22T11:56:14.648Z,33.20
2018-04-22T11:58:42.936Z,33.40
2018-04-22T12:01:11.455Z,32.70
2018-04-22T12:03:39.764Z,32.70
2018-04-22T12:06:08.313Z,32.10
2018-04-22T12:08:37.330Z,31.80
2018-04-22T12:11:05.602Z,31.10
2018-04-22T12:13:34.134Z,30.60
2018-04-22T12:16:02.577Z,30.00
2018-04-22T12:18:32.809Z,29.60
2018-04-22T12:21:01.219Z,29.10
2018-04-22T12:23:29.508Z,28.80
2018-04-22T12:25:57.790Z,28.90
2018-04-22T12:28:26.824Z,27.80
2018-04-22T12:30:55.157Z,27.80
2018-04-22T12:33:23.418Z,27.70
2018-04-22T12:35:51.684Z,27.90
2018-04-22T12:38:20.921Z,27.40
2018-04-22T12:40:49.521Z,27.30
2018-04-22T12:43:17.969Z,26.90
2018-04-22T12:45:46.274Z,26.80
2018-04-22T12:48:15.365Z,26.50
2018-04-22T12:50:44.404Z,26.50
2018-04-22T12:53:12.791Z,26.50
2018-04-22T12:55:41.111Z,26.30
2018-04-22T12:58:09.432Z,26.00
2018-04-22T13:00:37.707Z,25.90
2018-04-22T13:03:05.990Z,25.60
2018-04-22T13:05:34.314Z,25.60
2018-04-22T13:08:02.581Z,25.60
2018-04-22T13:10:30.921Z,25.50
2018-04-22T13:12:59.235Z,25.30
2018-04-22T13:15:28.329Z,25.20
2018-04-22T13:17:56.658Z,25.20
2018-04-22T13:20:25.773Z,25.50
2018-04-22T13:22:54.100Z,25.50
2018-04-22T13:25:22.423Z,25.50
2018-04-22T13:27:51.444Z,25.50
2018-04-22T13:30:19.837Z,25.50
2018-04-22T13:32:48.153Z,25.30
2018-04-22T13:35:17.218Z,25.30
2018-04-22T13:37:45.624Z,25.20
2018-04-22T13:40:13.884Z,25.40
2018-04-22T13:45:32.649Z,25.50
2018-04-22T13:48:01.179Z,25.20
2018-04-22T13:53:07.124Z,25.00
2018-04-22T13:55:36.386Z,25.00
2018-04-22T13:58:08.644Z,24.90
2018-04-22T14:00:38.344Z,25.00
2018-04-22T14:03:06.728Z,25.10
2018-04-22T14:05:36.370Z,24.60
2018-04-22T14:08:04.770Z,24.90
2018-04-22T14:10:33.272Z,24.80
2018-04-22T14:13:02.443Z,24.60
2018-04-22T14:15:30.766Z,24.50
2018-04-22T14:17:59.661Z,24.40
2018-04-22T14:20:28.041Z,24.70
2018-04-22T14:22:57.225Z,24.30
2018-04-22T14:25:26.298Z,24.30
2018-04-22T14:27:56.394Z,24.40
2018-04-22T14:30:24.875Z,24.40
2018-04-22T14:32:53.284Z,24.00
2018-04-22T14:35:22.048Z,24.00
2018-04-22T14:37:50.657Z,23.90
2018-04-22T14:40:21.076Z,24.00
2018-04-22T14:42:50.663Z,23.80
2018-04-22T14:45:31.009Z,23.90
2018-04-22T14:47:59.318Z,23.80
2018-04-22T14:50:28.080Z,24.00
2018-04-22T14:52:57.398Z,23.80
2018-04-22T14:55:26.905Z,23.80
2018-04-22T14:57:59.158Z,23.70
2018-04-22T15:00:27.748Z,24.00
2018-04-22T15:02:56.131Z,24.00
2018-04-22T15:05:24.775Z,23.90
2018-04-22T15:07:54.644Z,23.60
2018-04-22T15:10:24.689Z,23.60
2018-04-22T15:12:53.039Z,24.10
2018-04-22T15:15:21.364Z,23.50
2018-04-22T15:17:51.808Z,24.00
2018-04-22T15:20:23.488Z,23.80
2018-04-22T15:22:51.814Z,23.60
2018-04-22T15:34:06.716Z,23.90
2018-04-22T15:50:01.251Z,24.10
2018-04-22T15:52:30.477Z,23.90
2018-04-22T15:55:01.050Z,23.90
2018-04-22T15:57:29.648Z,24.00
2018-04-22T16:00:00.668Z,24.10
2018-04-22T16:02:30.930Z,24.30
2018-04-22T16:04:59.492Z,24.50
2018-04-22T16:07:29.009Z,24.90
2018-04-22T16:10:03.761Z,24.70
2018-04-22T16:12:47.361Z,24.90
2018-04-22T16:15:32.784Z,25.00
2018-04-22T16:18:04.395Z,25.40
2018-04-22T16:20:33.765Z,24.80
2018-04-22T16:23:02.506Z,24.90
2018-04-22T16:25:31.229Z,24.70
2018-04-22T16:28:01.027Z,25.10
2018-04-22T16:30:30.460Z,24.50
2018-04-22T16:33:00.036Z,24.30
2018-04-22T16:35:29.712Z,24.10
2018-04-22T16:37:58.693Z,24.10
2018-04-22T16:40:35.005Z,24.10
2018-04-22T16:43:10.270Z,24.40
2018-04-22T16:45:48.858Z,23.90
2018-04-22T16:48:17.240Z,24.30
2018-04-22T16:50:45.697Z,23.90
2018-04-22T16:53:14.953Z,25.10
2018-04-22T16:55:43.285Z,25.20
2018-04-22T16:58:11.560Z,25.70
2018-04-22T17:00:39.847Z,26.10
2018-04-22T17:03:08.185Z,26.40
2018-04-22T17:05:36.627Z,26.50
2018-04-22T17:08:05.072Z,26.90
2018-04-22T17:10:33.409Z,27.30
2018-04-22T17:13:01.841Z,27.90
2018-04-22T17:15:30.153Z,28.20
2018-04-22T17:17:58.483Z,28.50
2018-04-22T17:20:26.780Z,28.80
2018-04-22T17:22:55.058Z,29.20
2018-04-22T17:25:23.415Z,29.60
2018-04-22T17:27:52.514Z,30.60
2018-04-22T17:30:20.786Z,30.60
2018-04-22T17:32:49.198Z,30.80
2018-04-22T17:35:17.480Z,31.00
2018-04-22T17:37:45.884Z,31.30
2018-04-22T17:40:14.925Z,32.10
2018-04-22T17:42:50.077Z,32.10
2018-04-22T17:45:33.274Z,32.30
2018-04-22T17:48:01.572Z,32.60
2018-04-22T17:50:30.963Z,32.80
2018-04-22T17:52:59.424Z,33.10
2018-04-22T17:55:31.404Z,33.60
2018-04-22T17:58:00.526Z,34.70
2018-04-22T18:00:30.417Z,34.40
2018-04-22T18:02:58.698Z,34.40
2018-04-22T18:05:27.829Z,35.10
2018-04-22T18:07:56.117Z,35.20
2018-04-22T18:10:25.265Z,35.40
2018-04-22T18:12:53.585Z,35.60
2018-04-22T18:15:22.120Z,36.10
2018-04-22T18:17:57.417Z,36.50
2018-04-22T18:20:25.791Z,36.80
2018-04-22T18:22:54.086Z,37.10
2018-04-22T18:25:22.375Z,37.50
2018-04-22T18:27:50.750Z,37.80
2018-04-22T18:30:19.237Z,38.00
2018-04-22T18:32:52.762Z,38.40
2018-04-22T18:35:22.286Z,39.10
2018-04-22T18:37:50.661Z,39.20
2018-04-22T18:40:19.296Z,39.10
2018-04-22T18:42:48.057Z,39.30
2018-04-22T18:45:16.550Z,39.50
2018-04-22T18:47:44.984Z,39.60
2018-04-22T18:50:14.279Z,40.10
2018-04-22T18:52:43.504Z,40.30
2018-04-22T18:55:11.964Z,40.40
2018-04-22T18:57:40.427Z,40.60
2018-04-22T19:00:08.880Z,40.80
2018-04-22T19:02:38.147Z,41.10
2018-04-22T19:05:07.017Z,41.00
2018-04-22T19:07:35.378Z,41.30
2018-04-22T19:10:04.005Z,41.40
2018-04-22T19:12:32.306Z,41.60
2018-04-22T19:15:00.699Z,41.70
2018-04-22T19:17:29.860Z,41.90
2018-04-22T19:19:59.024Z,42.10
2018-04-22T19:22:28.115Z,42.50
2018-04-22T19:24:56.392Z,42.40
2018-04-22T19:27:24.695Z,42.70
2018-04-22T19:29:53.772Z,43.20
2018-04-22T19:32:22.056Z,43.20
2018-04-22T19:34:51.393Z,43.30
2018-04-22T19:37:19.748Z,43.60
2018-04-22T19:39:50.229Z,43.40
2018-04-22T19:42:18.530Z,43.70
2018-04-22T19:44:46.870Z,43.70
2018-04-22T19:47:15.280Z,44.00
2018-04-22T19:49:44.601Z,44.20
2018-04-22T19:52:13.089Z,44.40
2018-04-22T19:54:42.214Z,44.80
2018-04-22T19:57:11.262Z,44.90
2018-04-22T19:59:40.242Z,45.00
2018-04-22T20:02:08.504Z,45.00
2018-04-22T20:04:36.892Z,45.30
2018-04-22T20:07:05.152Z,45.50
2018-04-22T20:09:33.490Z,45.60
2018-04-22T20:12:01.817Z,45.90
2018-04-22T20:14:31.421Z,46.10
2018-04-22T20:16:59.731Z,46.20
2018-04-22T20:19:28.004Z,46.40
2018-04-22T20:21:56.342Z,46.60
2018-04-22T20:24:26.132Z,46.90
2018-04-22T20:26:55.182Z,46.90
2018-04-22T20:29:23.469Z,47.10
2018-04-22T20:31:51.805Z,47.10
2018-04-22T20:34:20.058Z,47.30
2018-04-22T20:36:48.661Z,47.70
2018-04-22T20:39:18.493Z,47.90
2018-04-22T20:41:46.803Z,47.80
2018-04-22T20:44:15.103Z,48.00
2018-04-22T20:46:43.411Z,48.10
2018-04-22T20:49:12.492Z,48.90
2018-04-22T20:51:41.570Z,48.40
2018-04-22T20:54:09.881Z,48.40
2018-04-22T20:56:38.978Z,48.60
2018-04-22T20:59:08.014Z,48.80
2018-04-22T21:01:36.314Z,48.80
2018-04-22T21:04:04.629Z,49.10
2018-04-22T21:06:33.687Z,49.30
2018-04-22T21:09:01.970Z,49.40
2018-04-22T21:11:30.276Z,49.40
2018-04-22T21:13:59.319Z,49.70
2018-04-22T21:16:27.634Z,49.70
2018-04-22T21:18:56.712Z,50.00
2018-04-22T21:21:24.980Z,50.10
2018-04-22T21:23:53.276Z,50.30
2018-04-22T21:26:21.583Z,50.40
2018-04-22T21:28:50.639Z,50.70
2018-04-22T21:31:18.940Z,50.80
2018-04-22T21:33:47.323Z,50.80
2018-04-22T21:36:15.599Z,51.00
2018-04-22T21:38:43.882Z,51.20
2018-04-22T21:41:12.922Z,51.90
2018-04-22T21:43:41.185Z,51.40
2018-04-22T21:46:09.494Z,51.40
2018-04-22T21:48:37.767Z,51.50
2018-04-22T21:51:06.119Z,51.70
2018-04-22T21:53:35.177Z,52.10
2018-04-22T21:56:03.512Z,52.10
2018-04-22T21:58:31.779Z,52.10
2018-04-22T22:01:00.070Z,52.20
2018-04-22T22:03:28.426Z,52.40
2018-04-22T22:05:57.463Z,52.60
2018-04-22T22:08:25.758Z,52.60
2018-04-22T22:10:54.018Z,52.60
2018-04-22T22:13:22.324Z,52.80
2018-04-22T22:15:51.390Z,52.90
2018-04-22T22:18:19.710Z,53.00
2018-04-22T22:20:48.744Z,53.00
2018-04-22T22:23:17.019Z,53.00
2018-04-22T22:25:45.364Z,53.00
2018-04-22T22:28:14.439Z,53.20
2018-04-22T22:30:42.734Z,53.20
2018-04-22T22:33:11.065Z,53.30
2018-04-22T22:35:39.378Z,53.20
2018-04-22T22:38:07.630Z,53.40
2018-04-22T22:40:35.904Z,53.50
2018-04-22T22:43:04.294Z,53.60
2018-04-22T22:45:32.568Z,53.70
2018-04-22T22:48:00.880Z,53.80
2018-04-22T22:50:29.155Z,53.80
2018-04-22T22:52:57.487Z,53.90
2018-04-22T22:55:25.799Z,54.10
2018-04-22T22:57:54.057Z,54.20
2018-04-22T23:00:22.362Z,54.50
2018-04-22T23:02:50.435Z,54.50
2018-04-22T23:05:18.694Z,54.60
2018-04-22T23:07:46.991Z,54.70
2018-04-22T23:10:15.318Z,54.90
2018-04-22T23:12:43.589Z,55.00
2018-04-22T23:15:11.859Z,55.10
2018-04-22T23:17:40.161Z,55.10
2018-04-22T23:20:08.440Z,55.20
2018-04-22T23:22:36.741Z,55.40
2018-04-22T23:25:05.014Z,55.60
2018-04-22T23:27:33.533Z,55.50
2018-04-22T23:30:02.596Z,55.70
2018-04-22T23:32:30.925Z,55.40
2018-04-22T23:34:59.181Z,55.40
2018-04-22T23:37:27.450Z,55.50
2018-04-22T23:39:55.771Z,55.60
2018-04-22T23:42:24.039Z,55.70
2018-04-22T23:44:52.334Z,55.70
2018-04-22T23:47:20.607Z,55.80
2018-04-22T23:49:48.943Z,55.90
2018-04-22T23:52:17.224Z,55.90
2018-04-22T23:54:46.286Z,57.20
2018-04-22T23:57:14.585Z,56.60
2018-04-22T23:59:42.873Z,56.60
